Αρχική σελίδα
METAR-TAF:

METAR-TAF

Αεροδρόμια :

Leuchars, Σκωτία

γεωγραφικό πλάτος: 56-23N, γεωγραφικό μήκος: 002-52W, υψόμετρο: 12 μ

Παρών καιρός

Η αναφορά έγινε 32 λεπτά πριν, στις 08:50 UTC
Άνεμος 7 kt από Α/NA
Θερμοκρασία 14°C
Υγρασία 82%
Πίεση 1009 hPa
Ορατότητα 10 χλμ και άνω
Νεφοσκεπής σε ύψος 1000 πόδια

METAR: EGQL 150850Z 11007KT 9999 OVC010 14/11 Q1009 RMK GRN

Χρόνος: 10:22 (09:22 UTC)

Πρόγνωση Καιρού

Η αναφορά έγινε 1 ώρα και 40 λεπτά πριν, στις 07:42 UTC
Η πρόγνωση ισχύει από τις 15 στις 09 UTC έως τις 15 στις 18 UTC
Άνεμος 3 kt από Ν
Ορατότητα 10 χλμ και άνω
Αρκετά νέφη σε ύψος 1200 πόδια
Καθιστάμενος
από 15 στις 09 UTC έως τις 15 στις 12 UTC
Λίγα νέφη σε ύψος 1200 πόδια
Πιθανότητα 30% :
Προσωρινά
από 15 στις 13 UTC έως τις 15 στις 17 UTC
Ορατότητα: 6000 μ
Όμβροι,

TAF: EGQL 150742Z 1509/1518 18003KT 9999 BKN012 BECMG 1509/1512 FEW012 PROB30 TEMPO 1513/1517 6000 SHRA

Μετεωρολογικές αναφορές και προγνώσεις για περισσότερα από 4000 αεροδρόμια (δελτία METAR και TAF).

Οι διαθέσιμοι σταθμοί απεικονίζονται στο χάρτη με κίτρινες και κόκκινες κουκκίδες.

Μετακινήστε το ποντίκι πάνω από τις κουκκίδες για να δείτε το όνομα του σταθμού.

Στη συνέχεια, κάντε κλικ για να δείτε τις μετεωρολογικές αναφορές και τις προγνώσεις καιρού.

Για να αλλάξετε το χάρτη: κάντε κλικ στα πράσινα κουμπιά με τον μαύρο σταυρό για να ζουμάρετε, στο πράσινο κουμπί με την παύλα για να αφαιρέσετε το ζουμ ή στα πράσινα βέλη για να αντιπαραβάλλετε χάρτες.


METAR-TAF: